Timeline UpdatesTrip UpdatesNews PostsPvt PostsTravel TipsAdmin PostsConv PostsFollowed PostsChat RequestsBlog PostsPNR Posts

Disclaimer
Search
 
 
Tue Sep 30, 2014 17:23:06 ISTHomeTrainsΣChainsAtlasPNRForumGalleryNewsFAQTripsMembersLoginFeedback
No Recent News for this Train
Other Trains in the News **new
Latest...
12060
Sun Mar 24, 2013 (05:06PM)
⇐ Return Journey: Train# 12059

12060⇒92060/Hazrat Nizamuddin-Kota Jan Shatabdi Express

TRAIN IS CANCELLED
Change Departure Station:
Change Arrival Station:
Post a Train Travel TipPost a Train Travel Tip **new
Post a Comment/Question/Picture/VideoPost a Comment/Question/Picture/Video
Pantry/Catering
✕ NO Pantry Car
✓ Catering Avbl
** Only VEG Food **
RSA - Rake Sharing
No RSA.; ** ISO:9001-2000 Certified Train **
Rake/Coach Composition
LOCO, D-16, C-1, C-2, D-15, D-14, D-13, D-12, D-11, D-10, D-9, D-8, D-7, D-6, D-5, D-4, D-3, D-2, D-1. { Extra 2S Coaches Usually Get Attatched Between D-2 & D-1 while Extra CC Coaches Usually Get Attatched Between C-1 & C-2 }; Author:- Manish Kumar Singh**
Loco
WAP 4E VADODARA(WR), WAP 7/5 GHAZIABAD(NR), WAP 7 TKD(WCR).
News    PNR    Forum    Time-Table    Availability    Fare Chart    Map    Arr/Dep History    Trips    Gallery    ΣChains    X/O    Timeline    
Travel Time: 6h 20m    8 halts    Distance: 458 km    Avg Speed: 72 km/hr
Type: Jan Shatabdi
Zone: WCR/West Central
Departs @ 13:20
Platform# 7
SMTWTFS
Delhi Hazrat Nizamuddin/NZM 
Arrives @ 19:40
Platform# 4
SMTWTFS
Kota Junction/KOTA 

8 halts. 65 intermediate Stations between Delhi Hazrat Nizamuddin and Kota Junction

Hide intermediate Stations  

#CodeStation NameX/OArrivesAvgDepartsAvgHaltPFDay#KmSpeedElevZoneAddress
1NZMDelhi Hazrat Nizamuddin (7)»  -13:20-710.073209mNRNew Delhi 110013, Delhi NCT
1.1OKAOkhla (4)  13:23-13:23-  13.7 73221mNRIshwar Nagar Mathura Road, Delhi NCT
1.2TKECTuglakabad East Cabin  13:26-13:26-  16.8 73214mNROkhla Indl Area II, Delhi NCT
1.3TKDTuglakabad (4)  13:28-13:28-  19.7 73213mNRNear Tughlakabad Metro Station, Delhi NCT
1.4TKDCTughlakabad Cabin  13:33-13:33-  115.5 73210mNRFaridabad, Haryana
1.5FDBFaridabad (4)p13:37-13:37-  120.8 69206mNRold Faridabad, Haryana
1.6FDNFaridabad New Town (3)  13:40-13:40-  124.7 69204mNRFaridabad, Haryana
2BVHBallabgarh (5)  13:44-13:46-2m--128.971203mNRFaridabad, Haryana
2.1PYLAPiyala Block Hut  13:51-13:51-  134.7 71200mNRLadholi - Shahpur Kalan - Sunped Road, Haryana
2.2ASTAsaoti (5)  13:54-13:54-  138.8 71203mNRAsaoti, Haryana
2.3PWLPalwal (8)  14:04-14:04-  150.0 71200mNRPalwal, Haryana
2.4RDERundhi (4)  14:12-14:12-  159.3 71194mNCRRundhi, Haryana
2.5SHLKSholaka (4)  14:21-14:21-  169.8 71 NCRFaridabad, Haryana
2.6BNCRBanchari (2)  14:23-14:23-  173.1 71189mNCRNational Highway 2, Haryana
2.7HDLHodal (4)  14:30-14:30-  180.2 71191mNCRFaridabad, Haryana
2.8KSVKosi Kalan (3)  14:40-14:40-  192.5 71189mNCRKosi Kalan, Uttar Pradesh
2.9CHJChata (4)  14:49-14:49-  1102.8 71 NCRChhata, Uttar Pradesh
2.10AJHAjhai (2)  14:57-14:57-  1112.8 71 NCRAjhai, Uttar Pradesh
2.11VRBDVrindaban Road (3)  15:06-15:06-  1123.8 71179mNCRVrindaban, Uttar Pradesh
2.12BTSRBhuteshwar (3)  15:13-15:13-  1131.3 71181mNCRMathura, Uttar Pradesh
3MTJMathura Junction (10)  15:15-15:20-5m31134.072179mNCRMathura, Uttar Pradesh
3.1MSRPMurhesi Rampur (2)  15:27-15:27-  1142.9 72182mWCRSH 33, Uttar Pradesh
3.2CRGChuraman Nagri  15:29-15:29-  1144.4 72180mWCRSH 33, Rajasthan
3.3JJAJajan Patti  15:34-15:34-  1151.3 72181mWCRState Highway 33, Rajasthan
3.4RKRRanikund Rarah  15:38-15:38-  1155.1 72176mWCRRarah, Rajasthan
3.5DUMDhaurmui Jaghina  15:41-15:41-  1159.2 72180mWCRState Highway 33, Rajasthan
4BTEBharatpur Junction (5)  15:48-15:50-2m31167.593174mWCRBharatpur, Rajasthan
4.1SWARSewar  15:56-15:56-  1177.2 93183mWCRBharatpur, Rajasthan
4.2JCUJaicholi  16:00-16:00-  1183.1 93186mWCRSH 1, Rajasthan
4.3PNGRPingora  16:04-16:04-  1188.6 93191mWCRSH 1, Rajasthan
4.4KEVKela Devi  16:09-16:09-  1197.6 93193mWCRBharatpur, Rajasthan
4.5SABDSalabad  16:12-16:12-  1201.5 93192mWCRBayana, Rajasthan
5BXNBayana Junction (3)  16:17-16:19-2m21209.590198mWCRBayana, Rajasthan
5.1DYDumariya (2)  16:25-16:25-  1218.5 90211mWCRState Highway 1, Rajasthan
5.2FSPFateh Singhpura  16:32-16:32-  1229.1 90223mWCRState Highway 1, Rajasthan
5.3DNHKDhindora Hukmikhera  16:35-16:35-  1234.0 90223mWCRDhindhora, Rajasthan
6HANHindaun City (2)  16:41-16:43-2m--1242.468230mWCRKarauli, Rajasthan
6.1SKDMSikroda Mina  16:47-16:47-  1247.0 68233mWCRSH 22, Rajasthan
7SMBJShri Mahabirji (3)  16:52-16:54-2m11252.579240mWCRKarauli, Rajasthan
7.1KNDPKhandip  17:00-17:00-  1259.9 79245mWCRState Highway 1, Rajasthan
7.2PDZPilioda  17:04-17:04-  1266.0 79247mWCRSH 1, Rajasthan
7.3COOChhoti Odai  17:10-17:10-  1273.9 79257mWCRSH 25, Rajasthan
8GGCGangapur City (3)  17:20-17:22-2m21286.696270mWCRGangapur, Rajasthan
8.1LRULalpur Umri  17:26-17:26-  1292.9 96276mWCRSH 1, Rajasthan
8.2NNWNarayanpur Tatwara (2)  17:33-17:33-  1303.6 96256mWCRSawai Madhopur, Rajasthan
8.3NMDNomoda  17:39-17:39-  1313.2 96238mWCRMDR 111, Rajasthan
8.4MLZMalarna  17:43-17:43-  1320.4 96236mWCRSawai Madhopur, Rajasthan
8.5MXLMokholi  17:50-17:50-  1331.1 96242mWCRMDR 111, Rajasthan
8.6RNTRanthambhore  17:56-17:56-  1340.3 96248mWCRMDR 111, Rajasthan
8.7SMDCSwai Madhopur d Cabin  18:00-18:00-  1347.1 96261mWCRSawai Madhopur, Rajasthan
9SWMSawai Madhopur Junction (4)  18:02-18:07-5m21350.570266mWCRSawai Madhopur, Rajasthan
9.1KTAKushtala  18:13-18:13-  1357.7 70283mWCRNH 116, Rajasthan
9.2RWJRawania Dungar  18:20-18:20-  1366.1 70266mWCRSawai Madhopur, Rajasthan
9.3AMLIAmli  18:27-18:27-  1373.7 70233mWCRSawai Madhopur, Rajasthan
9.4IDGIndargarh Sumerganj Mandi (2)  18:38-18:38-  1386.8 70247mWCRIndargarh, Rajasthan
9.5LKELakheri (3)  18:48-18:48-  1397.8 70228mWCRBundi, Rajasthan
9.6LBNLaban (2)  18:54-18:54-  1405.3 70225mWCRBundi, Rajasthan
9.7GKBGhataka Varana  19:02-19:02-  1414.7 70232mWCRSH 33, Rajasthan
9.8KPZKapren  19:11-19:11-  1424.7 70234mWCRKota - Lalsot Mega Highway, Rajasthan
9.9AREArnetha  19:19-19:19-  1433.9 70239mWCRShreepura, Rajasthan
9.10KPTNKeshorai Patan  19:28-19:28-  1444.9 70243mWCRSH 33, Rajasthan
9.11GNCNGurla N Cabin  19:33-19:33-  1450.1 70249mWCRGudla, Rajasthan
9.12GQLNGurla North  19:34-19:34-  1450.9 70248mWCRKota - Lalsot Mega Highway, Rajasthan
9.13GQLWGurla West  19:34-19:34-  1451.9 70249mWCRGurla, Rajasthan
9.14GQLGurla  19:35-19:35-  1452.8 70251mWCRSH 33, Rajasthan
9.15KCCNKota C Cabin  19:38-19:38-  1456.6 70246mWCRKota, Rajasthan
10KOTAKota Junction (5)•  19:40--41458.4-256mWCRKota, Rajasthan
Scroll to Top
Scroll to Bottom